aviador You're here:

CWHN Decoded Metar

JIMMY LAKE in SK, CANADA
Report Time2017-10-22 16:00:00
UTC Time2017-10-22 17:12:05
Flight Rules Old
Wind040° at 04 kt
W.Rank040° ranks 18
Current wind is below 040° avg. (5.2)
Visibility9999 m
Phenomena:N/A
Clouds:N/A
Expected CloudBase > 800 ft AGL from Temp-Dew spread
CeilingNone
Temp00°C (ISA -11)
Dew Point-2°C (87% RH)
AAT-3.7°C
QNH997 hPa
Density Alt1,398 ft
Elevation2,087 ft
Report Wrong Elevation
Raw Report
METAR CWHN 221600Z AUTO 04004KT 9SM CLR M00/M02 A2944 RMK SLP997=

Extra information for CWHN:More info

Metar Taf Metar & Taf Last 4 Metars F.Rules Stats Wind Profile Meteogram Temp Stats Airport Information Weather charts Add Link Nearby VenuesMetar ALERT Operation Metar Decoded Social comments